Hauptseite
METAR-TAF:

METAR-TAF

Flughäfen :

Heeresflugplatz Fritzlar

Fritzlar, Deutschland

Breite: 51-07N, Länge: 009-17E, Höhe: 172 m

Beobachtung

Neuester Wetterbericht von vor 1 Stunde und 9 Minuten, um 12:20 UTC
Wind 3 kt aus Ost/Südost
Temperatur 23°C
Luftfeuchtigkeit 38%
Luftdruck 1014 hPa
Sichtweite 10 km oder mehr
Leicht bewölkt in der Höhe von 10000 ft

METAR: ETHF 151220Z 11003KT 9999 FEW100 23/08 Q1014 BLU+BLU+

Zeit: 15:29 (13:29 UTC)

Prognose

Neuester Wetterbericht von vor 3 Stunden und 11 Minuten, um 10:18 UTC
Gültige Prognose vom 15 um 11 UTC bis 15 um 20 UTC
Wind 5 kt aus Süd
Sichtweite 10 km oder mehr
Aufgelockert bewölkt in der Höhe von 11000 ft

TAF: ETHF 151018Z 1511/1520 18005KT 9999 NSW SCT110

Wetterbeobachtungen und Prognosen von mehr als 4000 Flughäfen (METAR und TAF Bericht).

Die verfügbaren Stationen werden durch gelbe und rote Markierungen auf der Karte dargestellt.

Führen Sie die Maus auf sie, um den Namen der Station zu sehen.

Darauf klicken, um die Beobachtung von Wetterbeobachtungen und Prognosen zu sehen.

Um die Karte zu ändern : klicken Sie auf den grünen Tasten mit einem schwarzen Kreuz Zum Vergrößern, auf den grünen Button mit einem Gedankenstrich zu verkleinern, oder auf die grünen Pfeile für benachbarte Karten.


METAR-TAF: